Time;durP1;ratioP1;P1;durP2;ratioP2;P2;SDS_P1;SDS_P2;PMS_P1;PMS_P2;Temp;Humidity;BMP_temperature;BMP_pressure;BME280_temperature;BME280_humidity;BME280_pressure;Samples;Min_cycle;Max_cycle;Signal;HPM_P1;HPM_P2
2022/06/17 00:06:51;;;;;;;2.00;1.20;;;;;;;18.88;49.63;100483.00;31448645;28;20050;-73
2022/06/17 00:21:54;;;;;;;3.90;1.38;;;;;;;18.60;49.83;100488.63;31438375;28;20040;-71
2022/06/17 00:36:58;;;;;;;4.43;1.60;;;;;;;18.36;50.57;100485.00;31435360;28;20063;-72
2022/06/17 00:52:03;;;;;;;2.60;1.25;;;;;;;18.14;51.30;100484.44;31452181;28;20052;-72
2022/06/17 01:07:08;;;;;;;3.28;1.60;;;;;;;17.87;52.65;100474.25;31451301;28;20045;-73
2022/06/17 01:22:25;;;;;;;2.92;1.58;;;;;;;17.72;53.82;100474.09;31460420;28;20063;-72
2022/06/17 01:37:29;;;;;;;3.75;1.55;;;;;;;17.60;53.50;100478.50;31455089;28;20055;-72
2022/06/17 01:52:37;;;;;;;;;;;;;;;17.69;57.44;100480.53;31463566;28;20056;-71
2022/06/17 02:07:47;;;;;;;3.53;1.38;;;;;;;17.82;57.78;100466.63;31462833;28;19921;-71
2022/06/17 02:22:50;;;;;;;5.88;1.80;;;;;;;17.96;57.23;100474.22;31458558;28;20051;-73
2022/06/17 02:37:53;;;;;;;3.00;1.63;;;;;;;17.93;59.07;100467.69;31441156;28;20736;-73
2022/06/17 02:52:59;;;;;;;5.10;1.90;;;;;;;18.07;62.36;100482.75;31427735;28;20052;-72
2022/06/17 03:08:06;;;;;;;3.00;1.83;;;;;;;18.17;61.82;100481.53;31460308;28;20048;-72
2022/06/17 03:23:15;;;;;;;4.10;1.80;;;;;;;18.35;63.32;100486.22;31448519;28;20058;-72
2022/06/17 03:38:30;;;;;;;5.30;2.30;;;;;;;18.58;60.52;100482.78;31415852;28;20412;-73
2022/06/17 03:53:37;;;;;;;10.60;2.33;;;;;;;19.00;61.92;100479.25;31435050;28;20508;-72
2022/06/17 04:08:56;;;;;;;6.57;2.13;;;;;;;19.65;63.69;100463.84;31439525;28;20052;-73
2022/06/17 04:23:58;;;;;;;9.05;2.92;;;;;;;20.40;61.45;100468.94;31455697;28;20044;-72
2022/06/17 04:39:14;;;;;;;15.83;5.17;;;;;;;21.26;60.25;100468.44;31453448;28;20057;-72
2022/06/17 04:54:16;;;;;;;17.50;8.25;;;;;;;22.18;57.23;100464.19;31453071;28;20052;-71
2022/06/17 05:09:25;;;;;;;17.27;6.87;;;;;;;22.81;52.08;100483.53;31449847;28;20041;-72
2022/06/17 05:24:28;;;;;;;15.55;5.30;;;;;;;23.33;51.36;100487.59;31445932;28;20143;-72
2022/06/17 05:39:30;;;;;;;7.13;3.23;;;;;;;24.10;46.12;100475.22;31431044;28;20514;-73
2022/06/17 05:54:32;;;;;;;10.80;4.00;;;;;;;24.64;43.53;100469.44;31439141;28;20044;-73
2022/06/17 06:09:34;;;;;;;12.27;4.67;;;;;;;25.05;41.25;100461.28;31445480;28;20393;-73
2022/06/17 06:24:36;;;;;;;5.70;3.70;;;;;;;25.38;38.46;100449.28;31470131;28;20048;-71
2022/06/17 06:39:38;;;;;;;7.27;4.30;;;;;;;26.05;37.63;100437.00;31420299;28;20044;-74
2022/06/17 06:54:40;;;;;;;12.38;5.30;;;;;;;26.94;36.00;100440.97;31447194;28;20313;-72
2022/06/17 07:09:42;;;;;;;8.70;3.78;;;;;;;27.57;34.49;100429.31;31448921;28;20045;-73
2022/06/17 07:24:44;;;;;;;6.93;3.72;;;;;;;27.79;32.47;100422.69;31438264;28;20059;-73
2022/06/17 07:39:56;;;;;;;6.15;3.00;;;;;;;28.11;32.02;100415.03;31398642;28;20055;-72
2022/06/17 07:54:58;;;;;;;4.18;2.25;;;;;;;27.91;30.67;100401.69;31421917;28;20481;-71
2022/06/17 08:10:00;;;;;;;4.75;2.47;;;;;;;26.82;32.15;100393.78;31436612;28;20041;-70
2022/06/17 08:25:03;;;;;;;4.50;2.50;;;;;;;26.02;32.33;100394.28;31415797;28;20059;-74
2022/06/17 08:40:29;;;;;;;8.35;3.90;;;;;;;25.73;32.49;100389.50;31391707;28;20524;-70
2022/06/17 08:55:46;;;;;;;5.80;2.80;;;;;;;25.75;32.68;100390.47;31403055;28;20051;-73
2022/06/17 09:11:10;;;;;;;5.28;2.60;;;;;;;25.28;33.49;100398.06;31423391;28;20114;-79
2022/06/17 09:26:22;;;;;;;3.53;1.48;;;;;;;25.59;33.80;100398.91;31437029;28;20056;-79
2022/06/17 09:41:39;;;;;;;;;;;;;;;26.10;33.08;100397.28;31420228;28;20781;-78
2022/06/17 09:56:56;;;;;;;1.23;1.08;;;;;;;26.67;31.67;100399.03;31448034;28;19924;-68
2022/06/17 10:12:14;;;;;;;3.15;1.30;;;;;;;30.54;27.40;100388.47;31426804;28;20048;-70
2022/06/17 10:27:32;;;;;;;2.35;1.10;;;;;;;30.38;27.10;100361.66;31429259;28;20053;-69
2022/06/17 10:42:57;;;;;;;1.70;1.15;;;;;;;29.61;27.69;100331.56;31415776;28;20060;-69
2022/06/17 10:58:10;;;;;;;2.30;1.10;;;;;;;31.47;25.45;100324.56;31431450;28;20151;-70
2022/06/17 11:13:14;;;;;;;3.80;1.38;;;;;;;30.59;26.27;100320.34;31413463;28;20048;-78
2022/06/17 11:28:33;;;;;;;4.20;1.25;;;;;;;28.49;26.91;100314.44;31429360;28;20499;-74
2022/06/17 11:43:39;;;;;;;5.32;1.40;;;;;;;27.54;28.33;100312.53;31420284;28;20064;-76
2022/06/17 11:59:15;;;;;;;2.45;1.75;;;;;;;27.25;28.25;100301.06;31409904;28;20051;-79
2022/06/17 12:14:28;;;;;;;4.38;1.80;;;;;;;26.44;28.83;100300.34;31419465;28;20044;-77
2022/06/17 12:29:48;;;;;;;4.25;2.05;;;;;;;25.86;29.37;100283.97;31442236;28;20461;-77
2022/06/17 12:45:15;;;;;;;3.30;1.45;;;;;;;25.96;30.20;100274.00;31408925;28;20208;-70
2022/06/17 13:00:45;;;;;;;2.30;1.40;;;;;;;26.22;30.86;100272.75;31422903;28;20044;-76
2022/06/17 13:15:58;;;;;;;2.33;1.60;;;;;;;26.02;30.80;100260.78;31387157;28;20613;-79
2022/06/17 13:31:09;;;;;;;2.03;1.50;;;;;;;26.17;31.18;100250.00;31406037;28;20121;-81
2022/06/17 13:47:05;;;;;;;7.25;1.95;;;;;;;26.33;31.09;100242.78;31397497;28;21346;-78
2022/06/17 14:02:14;;;;;;;4.88;1.30;;;;;;;26.67;29.83;100223.63;31344684;28;20056;-69
2022/06/17 14:17:21;;;;;;;9.20;2.20;;;;;;;26.46;29.79;100208.69;31351352;28;20508;-71
2022/06/17 14:32:47;;;;;;;3.38;1.50;;;;;;;26.25;29.67;100196.53;31435138;28;20049;-84
2022/06/17 14:48:06;;;;;;;2.33;1.40;;;;;;;26.09;30.34;100182.31;31342938;28;20049;-73
2022/06/17 15:03:40;;;;;;;1.75;1.40;;;;;;;26.05;30.46;100190.22;31385902;28;20060;-86
2022/06/17 15:18:43;;;;;;;2.00;1.33;;;;;;;25.99;30.59;100183.94;31404413;28;20056;-69
2022/06/17 15:34:16;;;;;;;2.95;1.40;;;;;;;25.74;29.90;100179.72;31422236;28;20397;-79
2022/06/17 15:49:23;;;;;;;4.65;1.70;;;;;;;25.52;30.28;100183.41;31406518;28;20106;-76
2022/06/17 16:04:39;;;;;;;5.90;1.65;;;;;;;25.23;30.81;100187.72;31424040;28;20048;-76
2022/06/17 16:20:18;;;;;;;4.07;1.80;;;;;;;25.01;32.08;100182.34;31429018;28;20055;-74
2022/06/17 16:36:01;;;;;;;4.68;1.35;;;;;;;24.75;32.97;100193.84;31399600;28;20420;-72
2022/06/17 16:51:06;;;;;;;2.75;1.95;;;;;;;24.51;33.59;100194.50;31446741;28;20052;-73
2022/06/17 17:06:08;;;;;;;3.97;2.00;;;;;;;24.31;33.93;100194.84;31489434;28;20044;-73
2022/06/17 17:21:18;;;;;;;2.73;2.00;;;;;;;24.17;33.77;100191.06;31473687;28;20051;-72
2022/06/17 17:36:20;;;;;;;5.97;2.10;;;;;;;23.99;34.10;100195.19;31448115;28;20407;-73
2022/06/17 17:51:23;;;;;;;5.90;2.20;;;;;;;23.85;34.72;100209.34;31459087;28;20055;-73
2022/06/17 18:06:27;;;;;;;5.15;2.30;;;;;;;23.63;36.00;100212.88;31442245;28;20128;-72
2022/06/17 18:21:29;;;;;;;4.90;2.40;;;;;;;23.37;38.71;100222.22;31446698;28;20058;-72
2022/06/17 18:36:31;;;;;;;4.53;1.80;;;;;;;23.13;39.54;100221.94;31453123;28;20079;-72
2022/06/17 18:51:34;;;;;;;3.85;1.80;;;;;;;22.82;41.21;100216.59;31448081;28;20057;-73
2022/06/17 19:06:36;;;;;;;2.03;1.43;;;;;;;22.48;43.12;100227.53;31433003;28;20044;-73
2022/06/17 19:21:40;;;;;;;7.03;1.90;;;;;;;22.09;45.42;100230.91;31406030;28;20063;-74
2022/06/17 19:36:43;;;;;;;3.53;1.45;;;;;;;21.89;46.96;100222.72;31421561;28;20401;-73
2022/06/17 19:51:50;;;;;;;6.68;2.20;;;;;;;21.60;48.56;100207.19;31433523;28;20500;-74
2022/06/17 20:06:52;;;;;;;8.35;2.22;;;;;;;21.52;48.44;100205.38;31417863;28;20036;-72
2022/06/17 20:21:58;;;;;;;2.97;2.07;;;;;;;21.47;49.46;100209.63;31408296;28;20144;-73
2022/06/17 20:37:01;;;;;;;4.53;2.13;;;;;;;21.19;50.87;100212.13;31417855;28;20071;-73
2022/06/17 20:52:05;;;;;;;3.13;2.03;;;;;;;20.96;51.52;100213.91;31420864;28;20092;-75
2022/06/17 21:07:11;;;;;;;5.82;2.25;;;;;;;20.88;51.70;100210.06;31446539;28;20048;-73
2022/06/17 21:22:24;;;;;;;5.32;2.28;;;;;;;20.72;53.33;100208.66;31443861;28;20060;-72
2022/06/17 21:37:26;;;;;;;11.48;3.60;;;;;;;20.47;53.51;100209.38;31430258;28;20060;-73
2022/06/17 21:52:28;;;;;;;3.78;2.20;;;;;;;20.59;54.11;100199.97;31449228;28;20053;-72
2022/06/17 22:07:30;;;;;;;6.65;2.47;;;;;;;20.63;55.14;100197.78;31423859;28;20052;-73
2022/06/17 22:22:32;;;;;;;5.15;2.95;;;;;;;20.47;55.97;100192.84;31459510;28;20432;-73
2022/06/17 22:37:37;;;;;;;4.78;2.83;;;;;;;20.23;57.39;100195.78;31426018;28;20064;-73
2022/06/17 22:52:38;;;;;;;3.10;2.28;;;;;;;20.08;58.28;100190.31;31441093;28;20503;-73
2022/06/17 23:07:44;;;;;;;7.68;2.83;;;;;;;19.86;59.60;100183.75;31443045;28;20054;-73
2022/06/17 23:22:46;;;;;;;6.97;2.38;;;;;;;19.69;59.87;100180.75;31434955;28;20064;-73
2022/06/17 23:37:49;;;;;;;4.82;2.70;;;;;;;19.64;60.07;100189.69;31419798;28;20044;-72
2022/06/17 23:52:54;;;;;;;3.97;2.70;;;;;;;19.51;60.86;100175.50;31441422;28;20044;-74
